createdAt,value
2017-10-09T00:00:25.722Z,97808.28
2017-10-09T00:00:57.380Z,97800.61
2017-10-09T00:01:29.026Z,97806.56
2017-10-09T00:02:00.674Z,97804.88
2017-10-09T00:02:32.321Z,97811.70
2017-10-09T00:03:03.969Z,97804.94
2017-10-09T00:03:35.819Z,97807.08
2017-10-09T00:04:07.473Z,97810.49
2017-10-09T00:04:39.118Z,97806.66
2017-10-09T00:05:10.796Z,97805.84
2017-10-09T00:05:42.748Z,97807.99
2017-10-09T00:06:14.397Z,97809.27
2017-10-09T00:06:46.042Z,97808.41
2017-10-09T00:07:17.696Z,97810.07
2017-10-09T00:07:49.345Z,97810.54
2017-10-09T00:08:20.994Z,97810.18
2017-10-09T00:08:52.906Z,97809.77
2017-10-09T00:09:24.557Z,97811.95
2017-10-09T00:09:56.213Z,97812.39
2017-10-09T00:10:28.031Z,97818.78
2017-10-09T00:10:59.784Z,97805.18
2017-10-09T00:11:31.432Z,97811.58
2017-10-09T00:12:03.074Z,97812.85
2017-10-09T00:12:34.729Z,97811.59
2017-10-09T00:13:06.381Z,97812.44
2017-10-09T00:13:38.264Z,97809.05
2017-10-09T00:14:09.939Z,97803.08
2017-10-09T00:14:41.593Z,97807.33
2017-10-09T00:15:13.251Z,97809.46
2017-10-09T00:15:45.173Z,97807.81
2017-10-09T00:16:16.825Z,97815.00
2017-10-09T00:16:48.485Z,97810.38
2017-10-09T00:17:20.144Z,97805.70
2017-10-09T00:17:52.048Z,97811.23
2017-10-09T00:18:23.749Z,97804.01
2017-10-09T00:18:55.396Z,97806.13
2017-10-09T00:19:27.281Z,97807.88
2017-10-09T00:19:59.123Z,97804.50
2017-10-09T00:20:30.777Z,97802.38
2017-10-09T00:21:02.441Z,97804.06
2017-10-09T00:21:34.152Z,97807.45
2017-10-09T00:22:05.989Z,97811.28
2017-10-09T00:22:37.746Z,97810.02
2017-10-09T00:23:09.406Z,97806.19
2017-10-09T00:23:41.333Z,97808.33
2017-10-09T00:24:12.997Z,97803.64
2017-10-09T00:24:44.807Z,97807.91
2017-10-09T00:25:16.570Z,97814.70
2017-10-09T00:25:48.230Z,97814.75
2017-10-09T00:26:19.889Z,97810.09
2017-10-09T00:26:51.606Z,97816.03
2017-10-09T00:27:23.445Z,97810.52
2017-10-09T00:27:55.101Z,97813.49
2017-10-09T00:28:26.753Z,97810.14
2017-10-09T00:28:58.401Z,97802.00
2017-10-09T00:29:30.701Z,97804.99
2017-10-09T00:30:02.577Z,97805.42
2017-10-09T00:30:34.241Z,97810.57
2017-10-09T00:31:05.891Z,97806.73
2017-10-09T00:31:37.545Z,97807.59
2017-10-09T00:32:09.253Z,97807.16
2017-10-09T00:32:40.905Z,97808.45
2017-10-09T00:33:12.565Z,97814.41
2017-10-09T00:33:44.220Z,97806.32
2017-10-09T00:34:16.020Z,97808.47
2017-10-09T00:34:47.677Z,97813.19
2017-10-09T00:35:19.320Z,97811.48
2017-10-09T00:35:50.973Z,97809.36
2017-10-09T00:36:22.620Z,97809.80
2017-10-09T00:36:54.261Z,97811.48
2017-10-09T00:37:25.945Z,97809.36
2017-10-09T00:37:57.820Z,97805.11
2017-10-09T00:38:29.591Z,97811.45
2017-10-09T00:39:01.238Z,97803.36
2017-10-09T00:39:32.893Z,97809.36
2017-10-09T00:40:04.556Z,97804.27
2017-10-09T00:40:36.253Z,97801.70
2017-10-09T00:41:07.901Z,97808.53
2017-10-09T00:41:39.549Z,97810.23
2017-10-09T00:42:11.273Z,97807.26
2017-10-09T00:42:42.921Z,97807.72
2017-10-09T00:43:14.569Z,97811.13
2017-10-09T00:43:46.221Z,97807.26
2017-10-09T00:44:17.869Z,97812.35
2017-10-09T00:44:49.517Z,97803.84
2017-10-09T00:45:21.173Z,97808.95
2017-10-09T00:45:52.817Z,97807.25
2017-10-09T00:46:24.477Z,97803.84
2017-10-09T00:46:56.346Z,97809.31
2017-10-09T00:47:28.240Z,97805.96
2017-10-09T00:47:59.893Z,97810.22
2017-10-09T00:48:31.545Z,97804.63
2017-10-09T00:49:03.217Z,97811.30
2017-10-09T00:49:35.173Z,97808.72
2017-10-09T00:50:06.837Z,97809.53
2017-10-09T00:50:38.481Z,97807.32
2017-10-09T00:51:10.125Z,97809.82
2017-10-09T00:51:41.773Z,97809.41
2017-10-09T00:52:13.417Z,97807.70
2017-10-09T00:52:45.331Z,97810.63
2017-10-09T00:53:16.977Z,97810.56
2017-10-09T00:53:48.622Z,97810.55
2017-10-09T00:54:20.273Z,97810.54
2017-10-09T00:54:51.917Z,97809.69
2017-10-09T00:55:23.845Z,97803.31
2017-10-09T00:55:55.494Z,97805.86
2017-10-09T00:56:27.148Z,97808.30
2017-10-09T00:56:58.805Z,97805.78
2017-10-09T00:57:30.449Z,97805.31
2017-10-09T00:58:02.362Z,97804.88
2017-10-09T00:58:34.015Z,97799.34
2017-10-09T00:59:05.657Z,97796.77
2017-10-09T00:59:37.553Z,97799.69
2017-10-09T01:00:09.237Z,97804.31
2017-10-09T01:00:40.887Z,97802.97
2017-10-09T01:01:12.541Z,97808.08
2017-10-09T01:01:44.189Z,97803.38
2017-10-09T01:02:15.837Z,97800.77
2017-10-09T01:02:47.486Z,97807.98
2017-10-09T01:03:19.173Z,97801.60
2017-10-09T01:03:51.037Z,97803.72
2017-10-09T01:04:22.734Z,97796.00
2017-10-09T01:04:54.381Z,97794.73
2017-10-09T01:05:26.029Z,97800.26
2017-10-09T01:05:57.912Z,97795.99
2017-10-09T01:06:29.561Z,97797.20
2017-10-09T01:07:01.213Z,97796.76
2017-10-09T01:07:32.862Z,97797.22
2017-10-09T01:08:04.508Z,97794.23
2017-10-09T01:08:36.158Z,97803.18
2017-10-09T01:09:07.809Z,97801.47
2017-10-09T01:09:39.468Z,97798.49
2017-10-09T01:10:11.355Z,97796.34
2017-10-09T01:10:43.005Z,97796.79
2017-10-09T01:11:14.649Z,97790.39
2017-10-09T01:11:46.297Z,97793.78
2017-10-09T01:12:17.937Z,97796.78
2017-10-09T01:12:49.587Z,97798.89
2017-10-09T01:13:21.237Z,97797.55
2017-10-09T01:13:52.877Z,97797.56
2017-10-09T01:14:24.525Z,97795.48
2017-10-09T01:14:56.410Z,97801.02
2017-10-09T01:15:28.080Z,97801.41
2017-10-09T01:15:59.730Z,97802.67
2017-10-09T01:16:31.666Z,97796.29
2017-10-09T01:17:03.503Z,97794.16
2017-10-09T01:17:35.262Z,97798.41
2017-10-09T01:18:06.915Z,97799.20
2017-10-09T01:18:38.561Z,97796.64
2017-10-09T01:19:10.213Z,97802.60
2017-10-09T01:19:41.873Z,97797.89
2017-10-09T01:20:13.769Z,97801.30
2017-10-09T01:20:45.728Z,97794.06
2017-10-09T01:21:17.381Z,97799.25
2017-10-09T01:21:49.033Z,97800.09
2017-10-09T01:22:20.962Z,97797.64
2017-10-09T01:22:52.786Z,97800.17
2017-10-09T01:23:24.551Z,97800.97
2017-10-09T01:23:56.205Z,97795.00
2017-10-09T01:24:27.860Z,97797.98
2017-10-09T01:24:59.501Z,97798.81
2017-10-09T01:25:31.193Z,97796.28
2017-10-09T01:26:03.101Z,97799.70
2017-10-09T01:26:34.899Z,97795.07
2017-10-09T01:27:06.660Z,97796.38
2017-10-09T01:27:38.522Z,97792.59
2017-10-09T01:28:10.187Z,97796.91
2017-10-09T01:28:42.193Z,97796.91
2017-10-09T01:29:14.044Z,97803.75
2017-10-09T01:29:45.791Z,97793.52
2017-10-09T01:30:17.441Z,97793.96
2017-10-09T01:30:49.089Z,97794.02
2017-10-09T01:31:20.733Z,97793.19
2017-10-09T01:31:52.377Z,97790.23
2017-10-09T01:32:24.025Z,97796.23
2017-10-09T01:32:55.949Z,97790.67
2017-10-09T01:33:27.829Z,97800.49
2017-10-09T01:33:59.477Z,97794.11
2017-10-09T01:34:31.183Z,97789.05
2017-10-09T01:35:02.834Z,97789.92
2017-10-09T01:35:34.525Z,97795.92
2017-10-09T01:36:06.169Z,97790.34
2017-10-09T01:36:38.021Z,97797.13
2017-10-09T01:37:09.696Z,97794.14
2017-10-09T01:37:41.349Z,97798.36
2017-10-09T01:38:13.001Z,97793.29
2017-10-09T01:38:44.649Z,97794.60
2017-10-09T01:39:16.293Z,97792.11
2017-10-09T01:39:47.937Z,97793.39
2017-10-09T01:40:19.854Z,97789.97
2017-10-09T01:40:51.546Z,97794.59
2017-10-09T01:41:23.201Z,97786.12
2017-10-09T01:41:54.849Z,97790.37
2017-10-09T01:42:26.729Z,97787.78
2017-10-09T01:42:58.682Z,97785.64
2017-10-09T01:43:30.365Z,97796.77
2017-10-09T01:44:02.014Z,97793.81
2017-10-09T01:44:33.665Z,97792.10
2017-10-09T01:45:05.313Z,97781.05
2017-10-09T01:45:37.172Z,97792.16
2017-10-09T01:46:08.869Z,97790.91
2017-10-09T01:46:40.513Z,97791.83
2017-10-09T01:47:12.435Z,97791.83
2017-10-09T01:47:44.089Z,97788.86
2017-10-09T01:48:15.737Z,97797.48
2017-10-09T01:48:47.382Z,97792.80
2017-10-09T01:49:19.307Z,97794.12
2017-10-09T01:49:50.957Z,97793.28
2017-10-09T01:50:22.858Z,97793.70
2017-10-09T01:50:54.535Z,97783.92
2017-10-09T01:51:26.221Z,97793.77
2017-10-09T01:51:57.869Z,97788.25
2017-10-09T01:52:29.530Z,97787.03
2017-10-09T01:53:01.221Z,97791.66
2017-10-09T01:53:32.872Z,97787.88
2017-10-09T01:54:04.513Z,97790.84
2017-10-09T01:54:36.157Z,97792.14
2017-10-09T01:55:07.800Z,97790.00
2017-10-09T01:55:39.486Z,97791.28
2017-10-09T01:56:11.266Z,97791.72
2017-10-09T01:56:42.964Z,97791.28
2017-10-09T01:57:14.617Z,97795.55
2017-10-09T01:57:46.459Z,97794.69
2017-10-09T01:58:18.140Z,97786.62
2017-10-09T01:58:49.789Z,97790.38
2017-10-09T01:59:21.577Z,97792.08
2017-10-09T01:59:53.225Z,97792.08
2017-10-09T02:00:24.874Z,97794.68
2017-10-09T02:00:56.526Z,97795.95
2017-10-09T02:01:28.299Z,97793.00
2017-10-09T02:02:00.004Z,97795.53
2017-10-09T02:02:31.657Z,97798.52
2017-10-09T02:03:03.531Z,97796.83
2017-10-09T02:03:35.181Z,97792.63
2017-10-09T02:04:07.014Z,97792.99
2017-10-09T02:04:38.765Z,97800.22
2017-10-09T02:05:10.414Z,97793.41
2017-10-09T02:05:42.069Z,97794.69
2017-10-09T02:06:13.721Z,97793.84
2017-10-09T02:06:45.370Z,97791.72
2017-10-09T02:07:17.074Z,97795.13
2017-10-09T02:07:48.725Z,97791.36
2017-10-09T02:08:20.377Z,97787.52
2017-10-09T02:08:52.023Z,97795.59
2017-10-09T02:09:23.677Z,97795.61
2017-10-09T02:09:55.325Z,97793.48
2017-10-09T02:10:26.973Z,97798.59
2017-10-09T02:10:58.626Z,97791.34
2017-10-09T02:11:30.277Z,97794.33
2017-10-09T02:12:02.059Z,97790.50
2017-10-09T02:12:33.745Z,97795.19
2017-10-09T02:13:05.393Z,97790.08
2017-10-09T02:13:37.041Z,97789.25
2017-10-09T02:14:08.685Z,97791.37
2017-10-09T02:14:40.509Z,97795.69
2017-10-09T02:15:12.217Z,97797.39
2017-10-09T02:15:44.166Z,97796.11
2017-10-09T02:16:16.115Z,97794.41
2017-10-09T02:16:48.064Z,97796.55
2017-10-09T02:17:19.717Z,97798.25
2017-10-09T02:17:51.651Z,97798.25
2017-10-09T02:18:23.423Z,97800.38
2017-10-09T02:18:55.069Z,97797.41
2017-10-09T02:19:26.713Z,97798.25
2017-10-09T02:19:58.357Z,97793.58
2017-10-09T02:20:31.009Z,97795.27
2017-10-09T02:21:02.656Z,97797.87
2017-10-09T02:21:34.305Z,97794.05
2017-10-09T02:22:05.955Z,97796.61
2017-10-09T02:22:37.605Z,97800.37
2017-10-09T02:23:09.611Z,97791.44
2017-10-09T02:23:41.260Z,97796.91
2017-10-09T02:24:12.925Z,97797.38
2017-10-09T02:24:44.843Z,97799.94
2017-10-09T02:25:16.501Z,97795.67
2017-10-09T02:25:48.149Z,97792.70
2017-10-09T02:26:19.839Z,97797.38
2017-10-09T02:26:51.549Z,97792.63
2017-10-09T02:27:23.194Z,97797.69
2017-10-09T02:27:54.845Z,97796.76
2017-10-09T02:28:26.536Z,97797.23
2017-10-09T02:28:58.201Z,97798.89
2017-10-09T02:29:29.862Z,97794.62
2017-10-09T02:30:01.507Z,97801.80
2017-10-09T02:30:33.161Z,97799.65
2017-10-09T02:31:04.805Z,97797.52
2017-10-09T02:31:36.495Z,97802.18
2017-10-09T02:32:08.197Z,97797.92
2017-10-09T02:32:40.088Z,97801.75
2017-10-09T02:33:11.738Z,97796.20
2017-10-09T02:33:43.386Z,97797.44
2017-10-09T02:34:15.034Z,97800.81
2017-10-09T02:34:46.677Z,97797.78
2017-10-09T02:35:18.524Z,97802.03
2017-10-09T02:35:50.246Z,97801.55
2017-10-09T02:36:21.897Z,97802.17
2017-10-09T02:36:53.551Z,97799.75
2017-10-09T02:37:25.245Z,97799.16
2017-10-09T02:37:57.121Z,97804.68
2017-10-09T02:38:28.774Z,97795.55
2017-10-09T02:39:00.425Z,97806.00
2017-10-09T02:39:32.247Z,97804.84
2017-10-09T02:40:03.995Z,97801.09
2017-10-09T02:40:35.840Z,97806.17
2017-10-09T02:41:07.530Z,97804.40
2017-10-09T02:41:39.181Z,97807.66
2017-10-09T02:42:10.870Z,97801.14
2017-10-09T02:42:42.820Z,97798.06
2017-10-09T02:43:14.469Z,97802.09
2017-10-09T02:43:46.118Z,97798.41
2017-10-09T02:44:18.054Z,97807.47
2017-10-09T02:44:49.718Z,97800.03
2017-10-09T02:45:21.642Z,97806.16
2017-10-09T02:45:53.300Z,97802.44
2017-10-09T02:46:25.129Z,97805.12
2017-10-09T02:46:56.789Z,97797.06
2017-10-09T02:47:28.441Z,97801.02
2017-10-09T02:48:00.089Z,97803.55
2017-10-09T02:48:31.735Z,97801.78
2017-10-09T02:49:03.386Z,97803.34
2017-10-09T02:49:35.097Z,97797.35
2017-10-09T02:50:06.749Z,97796.78
2017-10-09T02:50:38.400Z,97795.12
2017-10-09T02:51:10.314Z,97799.91
2017-10-09T02:51:42.151Z,97795.39
2017-10-09T02:52:13.815Z,97794.31
2017-10-09T02:52:45.461Z,97794.05
2017-10-09T02:53:17.105Z,97799.32
2017-10-09T02:53:48.752Z,97796.20
2017-10-09T02:54:20.398Z,97792.25
2017-10-09T02:54:52.119Z,97796.77
2017-10-09T02:55:23.959Z,97788.54
2017-10-09T02:55:55.709Z,97794.73
2017-10-09T02:56:27.397Z,97795.42
2017-10-09T02:56:59.053Z,97792.70
2017-10-09T02:57:30.941Z,97795.96
2017-10-09T02:58:02.783Z,97797.09
2017-10-09T02:58:34.533Z,97797.38
2017-10-09T02:59:06.237Z,97796.88
2017-10-09T02:59:38.078Z,97798.59
2017-10-09T03:00:09.733Z,97793.39
2017-10-09T03:00:41.404Z,97793.33
2017-10-09T03:01:13.298Z,97794.61
2017-10-09T03:01:44.954Z,97794.51
2017-10-09T03:02:16.601Z,97794.50
2017-10-09T03:02:48.250Z,97794.00
2017-10-09T03:03:19.905Z,97799.45
2017-10-09T03:03:51.566Z,97794.62
2017-10-09T03:04:23.272Z,97794.53
2017-10-09T03:04:55.157Z,97800.02
2017-10-09T03:05:26.806Z,97804.22
2017-10-09T03:05:58.468Z,97802.44
2017-10-09T03:06:30.121Z,97799.05
2017-10-09T03:07:01.765Z,97806.70
2017-10-09T03:07:33.654Z,97804.08
2017-10-09T03:08:05.305Z,97804.83
2017-10-09T03:08:36.958Z,97802.27
2017-10-09T03:09:08.906Z,97805.27
2017-10-09T03:09:40.558Z,97801.84
2017-10-09T03:10:12.209Z,97806.13
2017-10-09T03:10:43.858Z,97802.78
2017-10-09T03:11:15.509Z,97801.94
2017-10-09T03:11:47.157Z,97801.95
2017-10-09T03:12:18.809Z,97799.03
2017-10-09T03:12:50.457Z,97800.72
2017-10-09T03:13:22.105Z,97802.36
2017-10-09T03:13:53.883Z,97796.88
2017-10-09T03:14:25.541Z,97801.94
2017-10-09T03:14:57.275Z,97798.59
2017-10-09T03:15:28.946Z,97799.02
2017-10-09T03:16:00.593Z,97800.25
2017-10-09T03:16:32.237Z,97803.72
2017-10-09T03:17:03.893Z,97805.84
2017-10-09T03:17:35.546Z,97801.16
2017-10-09T03:18:07.245Z,97804.98
2017-10-09T03:18:38.893Z,97804.69
2017-10-09T03:19:10.537Z,97804.70
2017-10-09T03:19:42.190Z,97798.72
2017-10-09T03:20:13.858Z,97804.69
2017-10-09T03:20:45.643Z,97800.52
2017-10-09T03:21:17.303Z,97804.34
2017-10-09T03:21:49.234Z,97801.02
2017-10-09T03:22:38.633Z,97797.19
2017-10-09T03:23:14.174Z,97801.17
2017-10-09T03:24:01.557Z,97805.00
2017-10-09T03:24:36.157Z,97808.50
2017-10-09T03:25:22.706Z,97808.16
2017-10-09T03:25:57.146Z,97802.70
2017-10-09T03:26:28.797Z,97798.52
2017-10-09T03:27:00.452Z,97799.41
2017-10-09T03:27:32.114Z,97798.58
2017-10-09T03:28:04.633Z,97804.64
2017-10-09T03:28:53.174Z,97805.55
2017-10-09T03:29:25.123Z,97802.28
2017-10-09T03:29:57.297Z,97799.31
2017-10-09T03:30:28.958Z,97799.39
2017-10-09T03:31:00.615Z,97805.36
2017-10-09T03:31:32.273Z,97798.63
2017-10-09T03:32:03.947Z,97801.66
2017-10-09T03:32:35.790Z,97801.66
2017-10-09T03:33:07.446Z,97803.02
2017-10-09T03:33:39.094Z,97806.06
2017-10-09T03:34:10.803Z,97800.10
2017-10-09T03:34:42.771Z,97800.95
2017-10-09T03:35:14.433Z,97800.59
2017-10-09T03:35:46.085Z,97799.76
2017-10-09T03:36:17.741Z,97800.75
2017-10-09T03:36:49.594Z,97803.73
2017-10-09T03:37:21.633Z,97806.30
2017-10-09T03:37:53.291Z,97804.23
2017-10-09T03:38:25.077Z,97804.68
2017-10-09T03:38:56.741Z,97808.55
2017-10-09T03:39:28.425Z,97804.32
2017-10-09T03:40:00.073Z,97805.22
2017-10-09T03:40:31.753Z,97803.95
2017-10-09T03:41:03.412Z,97802.69
2017-10-09T03:41:35.070Z,97804.88
2017-10-09T03:42:06.773Z,97797.66
2017-10-09T03:42:38.437Z,97802.39
2017-10-09T03:43:10.089Z,97801.55
2017-10-09T03:43:41.733Z,97807.56
2017-10-09T03:44:13.384Z,97799.50
2017-10-09T03:44:45.038Z,97804.61
2017-10-09T03:45:16.697Z,97803.80
2017-10-09T03:45:48.480Z,97804.65
2017-10-09T03:46:20.134Z,97803.80
2017-10-09T03:46:51.837Z,97807.23
2017-10-09T03:47:23.713Z,97807.28
2017-10-09T03:47:55.563Z,97809.83
2017-10-09T03:48:27.212Z,97810.27
2017-10-09T03:48:58.865Z,97803.91
2017-10-09T03:49:30.525Z,97806.11
2017-10-09T03:50:02.228Z,97807.41
2017-10-09T03:50:34.072Z,97807.45
2017-10-09T03:51:05.725Z,97807.04
2017-10-09T03:51:37.373Z,97804.91
2017-10-09T03:52:09.103Z,97805.77
2017-10-09T03:52:40.946Z,97809.17
2017-10-09T03:53:12.695Z,97805.83
2017-10-09T03:53:44.357Z,97807.17
2017-10-09T03:54:16.006Z,97806.33
2017-10-09T03:54:47.652Z,97806.77
2017-10-09T03:55:19.297Z,97804.27
2017-10-09T03:55:50.944Z,97801.34
2017-10-09T03:56:22.597Z,97806.47
2017-10-09T03:56:54.245Z,97803.55
2017-10-09T03:57:25.941Z,97804.82
2017-10-09T03:57:57.589Z,97800.16
2017-10-09T03:58:29.237Z,97809.52
2017-10-09T03:59:00.889Z,97807.02
2017-10-09T03:59:32.537Z,97800.64
2017-10-09T04:00:04.218Z,97804.55
2017-10-09T04:00:35.989Z,97807.52
2017-10-09T04:01:07.872Z,97803.27
2017-10-09T04:01:39.522Z,97802.47
2017-10-09T04:02:11.169Z,97809.70
2017-10-09T04:02:42.819Z,97811.42
2017-10-09T04:03:14.465Z,97811.00
2017-10-09T04:03:46.147Z,97803.82
2017-10-09T04:04:17.838Z,97806.81
2017-10-09T04:04:49.490Z,97812.39
2017-10-09T04:05:21.381Z,97811.55
2017-10-09T04:05:53.081Z,97809.47
2017-10-09T04:06:24.731Z,97815.88
2017-10-09T04:06:56.580Z,97812.03
2017-10-09T04:07:28.254Z,97815.01
2017-10-09T04:08:00.077Z,97811.19
2017-10-09T04:08:31.846Z,97812.89
2017-10-09T04:09:03.506Z,97815.94
2017-10-09T04:09:35.150Z,97814.24
2017-10-09T04:10:06.793Z,97813.02
2017-10-09T04:10:38.400Z,97811.37
2017-10-09T04:11:10.096Z,97812.22
2017-10-09T04:11:41.742Z,97814.77
2017-10-09T04:12:13.389Z,97818.20
2017-10-09T04:12:45.263Z,97806.30
2017-10-09T04:13:17.238Z,97815.23
2017-10-09T04:13:48.893Z,97816.13
2017-10-09T04:14:20.541Z,97811.89
2017-10-09T04:14:52.190Z,97814.44
2017-10-09T04:15:23.836Z,97813.63
2017-10-09T04:15:55.754Z,97816.62
2017-10-09T04:16:27.453Z,97806.84
2017-10-09T04:16:59.100Z,97813.27
2017-10-09T04:17:30.753Z,97814.55
2017-10-09T04:18:02.630Z,97811.14
2017-10-09T04:18:34.281Z,97813.27
2017-10-09T04:19:05.929Z,97810.73
2017-10-09T04:19:37.577Z,97808.61
2017-10-09T04:20:09.225Z,97806.95
2017-10-09T04:20:40.873Z,97808.23
2017-10-09T04:21:12.516Z,97808.66
2017-10-09T04:21:44.412Z,97811.23
2017-10-09T04:22:16.068Z,97804.84
2017-10-09T04:22:47.712Z,97807.02
2017-10-09T04:23:19.607Z,97804.48
2017-10-09T04:23:51.270Z,97808.73
2017-10-09T04:24:22.946Z,97808.73
2017-10-09T04:24:54.777Z,97811.33
2017-10-09T04:25:26.425Z,97808.84
2017-10-09T04:25:58.188Z,97811.34
2017-10-09T04:26:29.841Z,97810.06
2017-10-09T04:27:01.773Z,97807.09
2017-10-09T04:27:33.420Z,97808.38
2017-10-09T04:28:05.069Z,97814.37
2017-10-09T04:28:36.722Z,97804.59
2017-10-09T04:29:08.377Z,97810.98
2017-10-09T04:29:40.025Z,97808.02
2017-10-09T04:30:11.682Z,97809.72
2017-10-09T04:30:43.571Z,97813.13
2017-10-09T04:31:15.225Z,97812.73
2017-10-09T04:31:47.158Z,97811.89
2017-10-09T04:32:18.862Z,97811.91
2017-10-09T04:32:50.754Z,97812.33
2017-10-09T04:33:22.402Z,97807.65
2017-10-09T04:33:54.054Z,97809.78
2017-10-09T04:34:25.987Z,97812.34
2017-10-09T04:34:57.823Z,97810.68
2017-10-09T04:35:29.578Z,97816.22
2017-10-09T04:36:01.229Z,97813.67
2017-10-09T04:36:32.881Z,97811.96
2017-10-09T04:37:04.521Z,97809.88
2017-10-09T04:37:36.170Z,97809.45
2017-10-09T04:38:08.064Z,97815.41
2017-10-09T04:38:39.732Z,97812.02
2017-10-09T04:39:11.560Z,97814.99
2017-10-09T04:39:43.328Z,97801.80
2017-10-09T04:40:15.275Z,97810.70
2017-10-09T04:40:47.224Z,97808.56
2017-10-09T04:41:19.104Z,97802.61
2017-10-09T04:41:50.754Z,97808.55
2017-10-09T04:42:22.402Z,97807.27
2017-10-09T04:42:54.098Z,97808.08
2017-10-09T04:43:25.747Z,97812.33
2017-10-09T04:43:57.546Z,97811.89
2017-10-09T04:44:29.332Z,97810.19
2017-10-09T04:45:01.021Z,97810.18
2017-10-09T04:45:32.675Z,97805.08
2017-10-09T04:46:04.583Z,97811.84
2017-10-09T04:46:36.250Z,97810.55
2017-10-09T04:47:07.897Z,97812.63
2017-10-09T04:47:39.549Z,97810.91
2017-10-09T04:48:11.197Z,97812.56
2017-10-09T04:48:43.082Z,97813.83
2017-10-09T04:49:14.931Z,97811.22
2017-10-09T04:49:46.670Z,97816.73
2017-10-09T04:50:18.621Z,97812.00
2017-10-09T04:50:50.571Z,97817.11
2017-10-09T04:51:22.474Z,97808.97
2017-10-09T04:51:54.125Z,97817.89
2017-10-09T04:52:25.804Z,97814.86
2017-10-09T04:52:57.469Z,97809.73
2017-10-09T04:53:29.113Z,97812.66
2017-10-09T04:54:00.757Z,97817.28
2017-10-09T04:54:32.679Z,97818.97
2017-10-09T04:55:04.365Z,97821.09
2017-10-09T04:55:36.025Z,97812.95
2017-10-09T04:56:07.861Z,97815.92
2017-10-09T04:56:39.509Z,97820.55
2017-10-09T04:57:11.195Z,97818.80
2017-10-09T04:57:43.030Z,97812.41
2017-10-09T04:58:14.786Z,97815.81
2017-10-09T04:58:46.736Z,97814.58
2017-10-09T04:59:18.437Z,97814.09
2017-10-09T04:59:50.085Z,97815.75
2017-10-09T05:00:21.740Z,97814.88
2017-10-09T05:00:53.610Z,97812.69
2017-10-09T05:01:25.262Z,97816.04
2017-10-09T05:01:56.916Z,97819.85
2017-10-09T05:02:28.564Z,97818.14
2017-10-09T05:03:00.209Z,97813.84
2017-10-09T05:03:32.024Z,97821.48
2017-10-09T05:04:03.674Z,97814.67
2017-10-09T05:04:35.317Z,97814.20
2017-10-09T05:05:06.964Z,97808.23
2017-10-09T05:05:38.609Z,97814.63
2017-10-09T05:06:10.257Z,97810.77
2017-10-09T05:06:41.978Z,97809.02
2017-10-09T05:07:13.676Z,97815.38
2017-10-09T05:07:45.325Z,97814.48
2017-10-09T05:08:17.212Z,97812.77
2017-10-09T05:08:48.862Z,97814.86
2017-10-09T05:09:20.517Z,97814.41
2017-10-09T05:09:52.166Z,97813.08
2017-10-09T05:10:23.815Z,97814.33
2017-10-09T05:10:55.482Z,97813.06
2017-10-09T05:11:27.134Z,97818.97
2017-10-09T05:11:59.012Z,97810.02
2017-10-09T05:12:30.714Z,97814.27
2017-10-09T05:13:02.603Z,97812.56
2017-10-09T05:13:34.257Z,97815.56
2017-10-09T05:14:05.901Z,97818.54
2017-10-09T05:14:37.545Z,97815.14
2017-10-09T05:15:09.192Z,97813.05
2017-10-09T05:15:40.841Z,97817.69
2017-10-09T05:16:12.758Z,97818.53
2017-10-09T05:16:44.624Z,97816.83
2017-10-09T05:17:16.289Z,97816.84
2017-10-09T05:17:48.221Z,97818.96
2017-10-09T05:18:19.866Z,97824.49
2017-10-09T05:18:51.513Z,97818.54
2017-10-09T05:19:23.431Z,97814.70
2017-10-09T05:19:55.081Z,97813.42
2017-10-09T05:20:26.726Z,97820.65
2017-10-09T05:20:58.384Z,97819.75
2017-10-09T05:21:30.030Z,97822.78
2017-10-09T05:22:01.684Z,97816.88
2017-10-09T05:22:33.386Z,97822.87
2017-10-09T05:23:05.073Z,97821.64
2017-10-09T05:23:36.721Z,97822.92
2017-10-09T05:24:08.368Z,97824.20
2017-10-09T05:24:40.256Z,97825.47
2017-10-09T05:25:11.909Z,97826.76
2017-10-09T05:25:43.553Z,97822.16
2017-10-09T05:26:15.206Z,97824.35
2017-10-09T05:26:46.857Z,97829.93
2017-10-09T05:27:18.545Z,97826.11
2017-10-09T05:27:50.393Z,97825.30
2017-10-09T05:28:22.060Z,97827.88
2017-10-09T05:28:53.713Z,97827.03
2017-10-09T05:29:25.365Z,97828.73
2017-10-09T05:29:57.013Z,97829.16
2017-10-09T05:30:28.657Z,97826.24
2017-10-09T05:31:00.302Z,97827.99
2017-10-09T05:31:31.945Z,97828.00
2017-10-09T05:32:03.594Z,97823.76
2017-10-09T05:32:35.479Z,97820.84
2017-10-09T05:33:07.143Z,97828.06
2017-10-09T05:33:38.797Z,97824.67
2017-10-09T05:34:10.631Z,97826.80
2017-10-09T05:34:42.381Z,97828.13
2017-10-09T05:35:14.037Z,97828.14
2017-10-09T05:35:45.722Z,97828.61
2017-10-09T05:36:17.611Z,97824.80
2017-10-09T05:36:49.261Z,97832.03
2017-10-09T05:37:20.910Z,97826.50
2017-10-09T05:37:52.592Z,97824.39
2017-10-09T05:38:24.249Z,97829.96
2017-10-09T05:38:56.128Z,97829.13
2017-10-09T05:39:27.777Z,97829.17
2017-10-09T05:39:59.428Z,97827.06
2017-10-09T05:40:31.130Z,97829.19
2017-10-09T05:41:02.954Z,97828.34
2017-10-09T05:41:34.604Z,97832.59
2017-10-09T05:42:06.287Z,97827.50
2017-10-09T05:42:38.236Z,97833.08
2017-10-09T05:43:09.885Z,97838.59
2017-10-09T05:43:41.529Z,97833.50
2017-10-09T05:44:13.182Z,97828.41
2017-10-09T05:44:44.829Z,97829.69
2017-10-09T05:45:16.477Z,97830.96
2017-10-09T05:45:48.367Z,97828.45
2017-10-09T05:46:20.033Z,97831.86
2017-10-09T05:46:51.985Z,97833.56
2017-10-09T05:47:23.665Z,97828.09
2017-10-09T05:47:55.316Z,97829.80
2017-10-09T05:48:26.964Z,97830.66
2017-10-09T05:48:58.614Z,97834.53
2017-10-09T05:49:30.502Z,97829.44
2017-10-09T05:50:02.181Z,97832.89
2017-10-09T05:50:33.829Z,97833.75
2017-10-09T05:51:05.735Z,97837.59
2017-10-09T05:51:37.597Z,97836.79
2017-10-09T05:52:09.250Z,97838.06
2017-10-09T05:52:40.964Z,97839.34
2017-10-09T05:53:12.641Z,97836.80
2017-10-09T05:53:44.289Z,97836.84
2017-10-09T05:54:15.938Z,97837.70
2017-10-09T05:54:47.843Z,97832.61
2017-10-09T05:55:19.492Z,97835.59
2017-10-09T05:55:51.137Z,97840.70
2017-10-09T05:56:22.781Z,97837.72
2017-10-09T05:56:54.424Z,97843.66
2017-10-09T05:57:26.074Z,97840.26
2017-10-09T05:57:58.001Z,97836.87
2017-10-09T05:58:29.833Z,97834.36
2017-10-09T05:59:01.592Z,97842.88
2017-10-09T05:59:33.282Z,97836.50
2017-10-09T06:00:04.933Z,97839.05
2017-10-09T06:00:36.581Z,97835.27
2017-10-09T06:01:08.420Z,97837.35
2017-10-09T06:01:40.068Z,97835.70
2017-10-09T06:02:11.726Z,97839.95
2017-10-09T06:02:43.393Z,97838.25
2017-10-09T06:03:15.081Z,97834.44
2017-10-09T06:03:46.729Z,97838.73
2017-10-09T06:04:18.612Z,97833.22
2017-10-09T06:04:50.267Z,97842.16
2017-10-09T06:05:22.132Z,97840.02
2017-10-09T06:05:53.781Z,97835.35
2017-10-09T06:06:25.429Z,97835.35
2017-10-09T06:06:57.074Z,97833.66
2017-10-09T06:07:28.720Z,97835.78
2017-10-09T06:08:00.367Z,97834.12
2017-10-09T06:08:32.018Z,97834.97
2017-10-09T06:09:03.669Z,97834.13
2017-10-09T06:09:35.365Z,97836.30
2017-10-09T06:10:07.413Z,97834.61
2017-10-09T06:10:39.065Z,97832.86
2017-10-09T06:11:10.713Z,97834.61
2017-10-09T06:11:42.361Z,97826.95
2017-10-09T06:12:14.009Z,97832.91
2017-10-09T06:12:45.662Z,97836.73
2017-10-09T06:13:17.316Z,97833.75
2017-10-09T06:13:48.972Z,97832.91